sensor_id;sensor_type;location;lat;lon;timestamp;P1;durP1;ratioP1;P2;durP2;ratioP2
67248;SDS011;63247;54.300;18.592;2022-09-09T00:00:17;21.45;;;7.72;;
67248;SDS011;63247;54.300;18.592;2022-09-09T00:05:39;42.78;;;19.85;;
67248;SDS011;63247;54.300;18.592;2022-09-09T00:08:33;17.92;;;6.22;;
67248;SDS011;63247;54.300;18.592;2022-09-09T00:11:04;14.38;;;3.97;;
67248;SDS011;63247;54.300;18.592;2022-09-09T00:16:00;33.22;;;10.50;;
67248;SDS011;63247;54.300;18.592;2022-09-09T00:18:44;23.40;;;5.53;;
67248;SDS011;63247;54.300;18.592;2022-09-09T00:21:17;22.87;;;11.33;;
67248;SDS011;63247;54.300;18.592;2022-09-09T00:23:44;15.52;;;5.75;;
67248;SDS011;63247;54.300;18.592;2022-09-09T00:26:32;28.02;;;10.18;;
67248;SDS011;63247;54.300;18.592;2022-09-09T00:31:35;38.20;;;19.27;;
67248;SDS011;63247;54.300;18.592;2022-09-09T00:36:31;8.85;;;2.60;;
67248;SDS011;63247;54.300;18.592;2022-09-09T00:39:00;34.75;;;13.48;;
67248;SDS011;63247;54.300;18.592;2022-09-09T00:50:05;24.35;;;11.95;;
67248;SDS011;63247;54.300;18.592;2022-09-09T00:53:05;10.93;;;3.92;;
67248;SDS011;63247;54.300;18.592;2022-09-09T00:55:56;8.70;;;4.00;;
67248;SDS011;63247;54.300;18.592;2022-09-09T00:58:30;14.57;;;4.18;;
67248;SDS011;63247;54.300;18.592;2022-09-09T01:01:02;6.03;;;2.20;;
67248;SDS011;63247;54.300;18.592;2022-09-09T01:03:35;34.00;;;15.25;;
67248;SDS011;63247;54.300;18.592;2022-09-09T01:11:24;26.23;;;12.50;;
67248;SDS011;63247;54.300;18.592;2022-09-09T01:17:30;23.77;;;8.77;;
67248;SDS011;63247;54.300;18.592;2022-09-09T01:20:08;13.73;;;4.78;;
67248;SDS011;63247;54.300;18.592;2022-09-09T01:28:02;21.33;;;7.53;;
67248;SDS011;63247;54.300;18.592;2022-09-09T01:30:33;11.13;;;4.22;;
67248;SDS011;63247;54.300;18.592;2022-09-09T01:33:03;9.30;;;4.05;;
67248;SDS011;63247;54.300;18.592;2022-09-09T01:38:06;15.73;;;5.05;;
67248;SDS011;63247;54.300;18.592;2022-09-09T01:40:32;8.75;;;4.03;;
67248;SDS011;63247;54.300;18.592;2022-09-09T01:42:58;5.88;;;2.38;;
67248;SDS011;63247;54.300;18.592;2022-09-09T01:45:24;16.47;;;4.60;;
67248;SDS011;63247;54.300;18.592;2022-09-09T01:47:50;6.78;;;3.33;;
67248;SDS011;63247;54.300;18.592;2022-09-09T01:50:18;14.57;;;4.43;;
67248;SDS011;63247;54.300;18.592;2022-09-09T01:52:45;15.70;;;5.25;;
67248;SDS011;63247;54.300;18.592;2022-09-09T01:55:12;7.80;;;2.47;;
67248;SDS011;63247;54.300;18.592;2022-09-09T01:57:44;10.55;;;4.25;;
67248;SDS011;63247;54.300;18.592;2022-09-09T02:00:13;6.15;;;2.53;;
67248;SDS011;63247;54.300;18.592;2022-09-09T02:02:55;32.55;;;10.43;;
67248;SDS011;63247;54.300;18.592;2022-09-09T02:10:42;20.80;;;5.97;;
67248;SDS011;63247;54.300;18.592;2022-09-09T02:13:13;7.80;;;3.00;;
67248;SDS011;63247;54.300;18.592;2022-09-09T02:15:42;7.50;;;3.60;;
67248;SDS011;63247;54.300;18.592;2022-09-09T02:18:10;5.78;;;2.60;;
67248;SDS011;63247;54.300;18.592;2022-09-09T02:20:39;26.30;;;9.00;;
67248;SDS011;63247;54.300;18.592;2022-09-09T02:23:05;18.77;;;5.47;;
67248;SDS011;63247;54.300;18.592;2022-09-09T02:25:33;15.93;;;5.22;;
67248;SDS011;63247;54.300;18.592;2022-09-09T02:28:02;16.98;;;6.70;;
67248;SDS011;63247;54.300;18.592;2022-09-09T02:30:31;6.05;;;2.55;;
67248;SDS011;63247;54.300;18.592;2022-09-09T02:32:59;5.28;;;1.83;;
67248;SDS011;63247;54.300;18.592;2022-09-09T02:35:28;13.80;;;5.57;;
67248;SDS011;63247;54.300;18.592;2022-09-09T02:37:56;12.02;;;2.70;;
67248;SDS011;63247;54.300;18.592;2022-09-09T02:40:28;8.30;;;2.40;;
67248;SDS011;63247;54.300;18.592;2022-09-09T02:42:54;5.17;;;1.73;;
67248;SDS011;63247;54.300;18.592;2022-09-09T02:45:20;5.57;;;2.42;;
67248;SDS011;63247;54.300;18.592;2022-09-09T02:48:03;6.50;;;1.92;;
67248;SDS011;63247;54.300;18.592;2022-09-09T02:50:41;6.10;;;2.50;;
67248;SDS011;63247;54.300;18.592;2022-09-09T02:56:20;4.80;;;1.42;;
67248;SDS011;63247;54.300;18.592;2022-09-09T02:58:48;6.38;;;1.70;;
67248;SDS011;63247;54.300;18.592;2022-09-09T03:01:14;6.43;;;2.20;;
67248;SDS011;63247;54.300;18.592;2022-09-09T03:03:40;6.57;;;1.97;;
67248;SDS011;63247;54.300;18.592;2022-09-09T03:06:07;5.60;;;1.60;;
67248;SDS011;63247;54.300;18.592;2022-09-09T03:08:33;5.10;;;1.77;;
67248;SDS011;63247;54.300;18.592;2022-09-09T03:10:59;5.60;;;2.17;;
67248;SDS011;63247;54.300;18.592;2022-09-09T03:13:26;10.00;;;2.80;;
67248;SDS011;63247;54.300;18.592;2022-09-09T03:15:52;6.30;;;2.13;;
67248;SDS011;63247;54.300;18.592;2022-09-09T03:18:17;7.37;;;2.83;;
67248;SDS011;63247;54.300;18.592;2022-09-09T03:20:43;7.07;;;2.60;;
67248;SDS011;63247;54.300;18.592;2022-09-09T03:23:08;7.05;;;3.17;;
67248;SDS011;63247;54.300;18.592;2022-09-09T03:25:34;9.30;;;3.87;;
67248;SDS011;63247;54.300;18.592;2022-09-09T03:28:01;8.75;;;3.47;;
67248;SDS011;63247;54.300;18.592;2022-09-09T03:30:27;14.38;;;4.25;;
67248;SDS011;63247;54.300;18.592;2022-09-09T03:32:53;12.57;;;5.07;;
67248;SDS011;63247;54.300;18.592;2022-09-09T03:35:18;11.32;;;4.80;;
67248;SDS011;63247;54.300;18.592;2022-09-09T03:37:44;11.93;;;4.32;;
67248;SDS011;63247;54.300;18.592;2022-09-09T03:40:10;11.65;;;5.40;;
67248;SDS011;63247;54.300;18.592;2022-09-09T03:42:36;12.20;;;5.10;;
67248;SDS011;63247;54.300;18.592;2022-09-09T03:45:09;12.70;;;5.57;;
67248;SDS011;63247;54.300;18.592;2022-09-09T03:47:35;12.83;;;5.77;;
67248;SDS011;63247;54.300;18.592;2022-09-09T03:50:02;13.05;;;6.60;;
67248;SDS011;63247;54.300;18.592;2022-09-09T03:52:29;13.35;;;5.53;;
67248;SDS011;63247;54.300;18.592;2022-09-09T03:54:55;12.90;;;5.13;;
67248;SDS011;63247;54.300;18.592;2022-09-09T03:57:21;13.75;;;5.70;;
67248;SDS011;63247;54.300;18.592;2022-09-09T03:59:47;15.30;;;5.63;;
67248;SDS011;63247;54.300;18.592;2022-09-09T04:02:13;17.23;;;6.63;;
67248;SDS011;63247;54.300;18.592;2022-09-09T04:04:39;16.23;;;6.60;;
67248;SDS011;63247;54.300;18.592;2022-09-09T04:07:04;13.20;;;5.10;;
67248;SDS011;63247;54.300;18.592;2022-09-09T04:09:32;15.60;;;5.90;;
67248;SDS011;63247;54.300;18.592;2022-09-09T04:11:57;15.38;;;6.05;;
67248;SDS011;63247;54.300;18.592;2022-09-09T04:14:23;12.13;;;5.80;;
67248;SDS011;63247;54.300;18.592;2022-09-09T04:16:52;15.35;;;6.32;;
67248;SDS011;63247;54.300;18.592;2022-09-09T04:19:18;12.50;;;5.18;;
67248;SDS011;63247;54.300;18.592;2022-09-09T04:21:43;12.70;;;6.40;;
67248;SDS011;63247;54.300;18.592;2022-09-09T04:24:09;12.43;;;6.03;;
67248;SDS011;63247;54.300;18.592;2022-09-09T04:26:35;13.90;;;6.28;;
67248;SDS011;63247;54.300;18.592;2022-09-09T04:29:02;10.67;;;5.00;;
67248;SDS011;63247;54.300;18.592;2022-09-09T04:31:28;17.90;;;6.90;;
67248;SDS011;63247;54.300;18.592;2022-09-09T04:33:54;19.17;;;7.35;;
67248;SDS011;63247;54.300;18.592;2022-09-09T04:36:19;15.80;;;6.43;;
67248;SDS011;63247;54.300;18.592;2022-09-09T04:38:45;15.67;;;6.20;;
67248;SDS011;63247;54.300;18.592;2022-09-09T04:41:13;14.30;;;5.97;;
67248;SDS011;63247;54.300;18.592;2022-09-09T04:43:39;16.33;;;5.72;;
67248;SDS011;63247;54.300;18.592;2022-09-09T04:46:05;16.57;;;7.50;;
67248;SDS011;63247;54.300;18.592;2022-09-09T04:48:30;13.73;;;5.75;;
67248;SDS011;63247;54.300;18.592;2022-09-09T04:51:06;14.40;;;5.50;;
67248;SDS011;63247;54.300;18.592;2022-09-09T04:53:34;13.95;;;6.07;;
67248;SDS011;63247;54.300;18.592;2022-09-09T04:56:03;15.38;;;7.00;;
67248;SDS011;63247;54.300;18.592;2022-09-09T04:58:39;11.03;;;5.37;;
67248;SDS011;63247;54.300;18.592;2022-09-09T05:01:09;10.27;;;4.38;;
67248;SDS011;63247;54.300;18.592;2022-09-09T05:03:36;10.85;;;5.38;;
67248;SDS011;63247;54.300;18.592;2022-09-09T05:06:12;13.95;;;6.03;;
67248;SDS011;63247;54.300;18.592;2022-09-09T05:08:41;13.93;;;5.25;;
67248;SDS011;63247;54.300;18.592;2022-09-09T05:11:17;12.10;;;5.40;;
67248;SDS011;63247;54.300;18.592;2022-09-09T05:13:43;11.07;;;4.60;;
67248;SDS011;63247;54.300;18.592;2022-09-09T05:16:10;13.27;;;4.47;;
67248;SDS011;63247;54.300;18.592;2022-09-09T05:18:39;14.65;;;4.57;;
67248;SDS011;63247;54.300;18.592;2022-09-09T05:21:06;11.02;;;4.10;;
67248;SDS011;63247;54.300;18.592;2022-09-09T05:23:33;11.40;;;5.00;;
67248;SDS011;63247;54.300;18.592;2022-09-09T05:25:59;18.73;;;7.20;;
67248;SDS011;63247;54.300;18.592;2022-09-09T05:28:25;10.20;;;4.50;;
67248;SDS011;63247;54.300;18.592;2022-09-09T05:30:58;24.48;;;7.25;;
67248;SDS011;63247;54.300;18.592;2022-09-09T05:33:25;29.17;;;8.52;;
67248;SDS011;63247;54.300;18.592;2022-09-09T05:35:58;31.13;;;8.43;;
67248;SDS011;63247;54.300;18.592;2022-09-09T05:38:26;23.23;;;6.88;;
67248;SDS011;63247;54.300;18.592;2022-09-09T05:40:52;20.17;;;6.50;;
67248;SDS011;63247;54.300;18.592;2022-09-09T05:43:19;50.13;;;12.23;;
67248;SDS011;63247;54.300;18.592;2022-09-09T05:45:46;17.17;;;6.65;;
67248;SDS011;63247;54.300;18.592;2022-09-09T05:48:13;18.60;;;6.07;;
67248;SDS011;63247;54.300;18.592;2022-09-09T05:50:42;22.45;;;7.07;;
67248;SDS011;63247;54.300;18.592;2022-09-09T05:53:08;34.15;;;8.40;;
67248;SDS011;63247;54.300;18.592;2022-09-09T05:55:35;26.10;;;9.53;;
67248;SDS011;63247;54.300;18.592;2022-09-09T05:58:01;43.03;;;11.82;;
67248;SDS011;63247;54.300;18.592;2022-09-09T06:00:27;26.55;;;7.63;;
67248;SDS011;63247;54.300;18.592;2022-09-09T06:02:56;40.45;;;9.77;;
67248;SDS011;63247;54.300;18.592;2022-09-09T06:05:22;20.90;;;6.27;;
67248;SDS011;63247;54.300;18.592;2022-09-09T06:07:51;24.17;;;6.40;;
67248;SDS011;63247;54.300;18.592;2022-09-09T06:10:17;25.10;;;6.43;;
67248;SDS011;63247;54.300;18.592;2022-09-09T06:12:44;17.15;;;5.70;;
67248;SDS011;63247;54.300;18.592;2022-09-09T06:15:09;11.80;;;4.50;;
67248;SDS011;63247;54.300;18.592;2022-09-09T06:17:35;16.07;;;7.87;;
67248;SDS011;63247;54.300;18.592;2022-09-09T06:20:01;15.85;;;5.78;;
67248;SDS011;63247;54.300;18.592;2022-09-09T06:22:27;22.15;;;5.80;;
67248;SDS011;63247;54.300;18.592;2022-09-09T06:24:52;25.73;;;7.80;;
67248;SDS011;63247;54.300;18.592;2022-09-09T06:27:18;13.90;;;5.18;;
67248;SDS011;63247;54.300;18.592;2022-09-09T06:29:44;27.47;;;10.20;;
67248;SDS011;63247;54.300;18.592;2022-09-09T06:32:09;15.67;;;5.23;;
67248;SDS011;63247;54.300;18.592;2022-09-09T06:34:35;14.27;;;5.45;;
67248;SDS011;63247;54.300;18.592;2022-09-09T06:37:01;10.37;;;4.53;;
67248;SDS011;63247;54.300;18.592;2022-09-09T06:39:27;14.50;;;5.60;;
67248;SDS011;63247;54.300;18.592;2022-09-09T06:41:53;11.57;;;4.55;;
67248;SDS011;63247;54.300;18.592;2022-09-09T06:44:19;12.80;;;4.90;;
67248;SDS011;63247;54.300;18.592;2022-09-09T06:46:45;10.10;;;3.42;;
67248;SDS011;63247;54.300;18.592;2022-09-09T06:49:13;13.15;;;4.88;;
67248;SDS011;63247;54.300;18.592;2022-09-09T06:51:38;18.17;;;6.17;;
67248;SDS011;63247;54.300;18.592;2022-09-09T06:54:11;14.52;;;4.20;;
67248;SDS011;63247;54.300;18.592;2022-09-09T06:56:38;14.43;;;5.50;;
67248;SDS011;63247;54.300;18.592;2022-09-09T06:59:07;19.70;;;6.80;;
67248;SDS011;63247;54.300;18.592;2022-09-09T07:01:35;21.83;;;7.07;;
67248;SDS011;63247;54.300;18.592;2022-09-09T07:04:02;15.37;;;4.80;;
67248;SDS011;63247;54.300;18.592;2022-09-09T07:06:30;80.65;;;20.02;;
67248;SDS011;63247;54.300;18.592;2022-09-09T07:09:01;85.22;;;19.20;;
67248;SDS011;63247;54.300;18.592;2022-09-09T07:11:33;59.10;;;10.93;;
67248;SDS011;63247;54.300;18.592;2022-09-09T07:14:02;30.95;;;7.35;;
67248;SDS011;63247;54.300;18.592;2022-09-09T07:16:28;10.13;;;3.50;;
67248;SDS011;63247;54.300;18.592;2022-09-09T07:18:56;25.98;;;6.22;;
67248;SDS011;63247;54.300;18.592;2022-09-09T07:21:23;8.87;;;3.40;;
67248;SDS011;63247;54.300;18.592;2022-09-09T07:23:49;9.50;;;3.88;;
67248;SDS011;63247;54.300;18.592;2022-09-09T07:26:19;19.45;;;6.22;;
67248;SDS011;63247;54.300;18.592;2022-09-09T07:28:46;20.33;;;5.55;;
67248;SDS011;63247;54.300;18.592;2022-09-09T07:31:13;15.97;;;5.90;;
67248;SDS011;63247;54.300;18.592;2022-09-09T07:33:41;18.40;;;6.35;;
67248;SDS011;63247;54.300;18.592;2022-09-09T07:36:15;12.70;;;4.55;;
67248;SDS011;63247;54.300;18.592;2022-09-09T07:38:50;19.83;;;5.97;;
67248;SDS011;63247;54.300;18.592;2022-09-09T07:41:42;23.77;;;6.95;;
67248;SDS011;63247;54.300;18.592;2022-09-09T07:44:13;14.60;;;5.50;;
67248;SDS011;63247;54.300;18.592;2022-09-09T07:46:46;13.88;;;5.55;;
67248;SDS011;63247;54.300;18.592;2022-09-09T07:49:12;12.90;;;5.32;;
67248;SDS011;63247;54.300;18.592;2022-09-09T07:51:39;11.05;;;5.45;;
67248;SDS011;63247;54.300;18.592;2022-09-09T07:54:09;10.88;;;4.40;;
67248;SDS011;63247;54.300;18.592;2022-09-09T07:56:36;9.80;;;3.93;;
67248;SDS011;63247;54.300;18.592;2022-09-09T07:59:03;9.10;;;4.40;;
67248;SDS011;63247;54.300;18.592;2022-09-09T08:01:41;11.63;;;4.53;;
67248;SDS011;63247;54.300;18.592;2022-09-09T08:04:10;12.10;;;5.05;;
67248;SDS011;63247;54.300;18.592;2022-09-09T08:06:42;7.50;;;3.13;;
67248;SDS011;63247;54.300;18.592;2022-09-09T08:09:10;9.73;;;5.00;;
67248;SDS011;63247;54.300;18.592;2022-09-09T08:11:36;10.95;;;5.15;;
67248;SDS011;63247;54.300;18.592;2022-09-09T08:14:02;11.85;;;5.18;;
67248;SDS011;63247;54.300;18.592;2022-09-09T08:16:30;9.10;;;4.72;;
67248;SDS011;63247;54.300;18.592;2022-09-09T08:18:57;12.02;;;5.35;;
67248;SDS011;63247;54.300;18.592;2022-09-09T08:21:32;8.80;;;3.50;;
67248;SDS011;63247;54.300;18.592;2022-09-09T08:23:59;17.58;;;9.85;;
67248;SDS011;63247;54.300;18.592;2022-09-09T08:26:26;14.32;;;6.93;;
67248;SDS011;63247;54.300;18.592;2022-09-09T08:28:55;17.60;;;7.37;;
67248;SDS011;63247;54.300;18.592;2022-09-09T08:31:23;10.82;;;5.10;;
67248;SDS011;63247;54.300;18.592;2022-09-09T08:33:49;11.73;;;4.90;;
67248;SDS011;63247;54.300;18.592;2022-09-09T08:36:16;12.23;;;6.23;;
67248;SDS011;63247;54.300;18.592;2022-09-09T08:38:46;13.00;;;5.55;;
67248;SDS011;63247;54.300;18.592;2022-09-09T08:53:00;13.07;;;6.05;;
67248;SDS011;63247;54.300;18.592;2022-09-09T08:55:20;11.60;;;5.60;;
67248;SDS011;63247;54.300;18.592;2022-09-09T08:57:51;113.35;;;75.03;;
67248;SDS011;63247;54.300;18.592;2022-09-09T09:00:19;153.30;;;90.97;;
67248;SDS011;63247;54.300;18.592;2022-09-09T09:02:58;18.52;;;8.77;;
67248;SDS011;63247;54.300;18.592;2022-09-09T09:05:47;16.05;;;8.38;;
67248;SDS011;63247;54.300;18.592;2022-09-09T09:08:30;16.73;;;8.10;;
67248;SDS011;63247;54.300;18.592;2022-09-09T09:11:06;10.07;;;4.10;;
67248;SDS011;63247;54.300;18.592;2022-09-09T09:16:41;22.23;;;8.48;;
67248;SDS011;63247;54.300;18.592;2022-09-09T09:19:16;25.13;;;9.87;;
67248;SDS011;63247;54.300;18.592;2022-09-09T09:26:46;12.85;;;5.90;;
67248;SDS011;63247;54.300;18.592;2022-09-09T09:29:14;13.55;;;7.10;;
67248;SDS011;63247;54.300;18.592;2022-09-09T09:31:45;13.88;;;6.32;;
67248;SDS011;63247;54.300;18.592;2022-09-09T09:34:14;17.50;;;10.25;;
67248;SDS011;63247;54.300;18.592;2022-09-09T09:36:44;12.43;;;5.37;;
67248;SDS011;63247;54.300;18.592;2022-09-09T09:39:27;9.40;;;3.78;;
67248;SDS011;63247;54.300;18.592;2022-09-09T09:42:15;12.10;;;5.97;;
67248;SDS011;63247;54.300;18.592;2022-09-09T09:44:42;15.13;;;6.82;;
67248;SDS011;63247;54.300;18.592;2022-09-09T09:47:15;16.27;;;7.78;;
67248;SDS011;63247;54.300;18.592;2022-09-09T09:49:53;16.07;;;7.03;;
67248;SDS011;63247;54.300;18.592;2022-09-09T09:52:24;15.65;;;7.30;;
67248;SDS011;63247;54.300;18.592;2022-09-09T09:54:51;61.63;;;33.45;;
67248;SDS011;63247;54.300;18.592;2022-09-09T09:57:18;48.58;;;26.73;;
67248;SDS011;63247;54.300;18.592;2022-09-09T09:59:48;11.00;;;5.13;;
67248;SDS011;63247;54.300;18.592;2022-09-09T10:05:35;16.52;;;8.13;;
67248;SDS011;63247;54.300;18.592;2022-09-09T10:07:47;19.07;;;7.90;;
67248;SDS011;63247;54.300;18.592;2022-09-09T10:19:18;12.88;;;6.70;;
67248;SDS011;63247;54.300;18.592;2022-09-09T10:38:47;13.90;;;6.68;;
67248;SDS011;63247;54.300;18.592;2022-09-09T10:47:33;16.02;;;7.60;;
67248;SDS011;63247;54.300;18.592;2022-09-09T10:55:43;19.67;;;9.35;;
67248;SDS011;63247;54.300;18.592;2022-09-09T10:58:23;21.33;;;11.00;;
67248;SDS011;63247;54.300;18.592;2022-09-09T11:00:56;16.58;;;8.68;;
67248;SDS011;63247;54.300;18.592;2022-09-09T11:03:28;10.93;;;4.93;;
67248;SDS011;63247;54.300;18.592;2022-09-09T11:08:31;15.77;;;8.15;;
67248;SDS011;63247;54.300;18.592;2022-09-09T11:11:04;17.05;;;8.90;;
67248;SDS011;63247;54.300;18.592;2022-09-09T11:14:09;26.00;;;13.20;;
67248;SDS011;63247;54.300;18.592;2022-09-09T11:16:48;18.10;;;8.77;;
67248;SDS011;63247;54.300;18.592;2022-09-09T11:21:52;17.40;;;9.13;;
67248;SDS011;63247;54.300;18.592;2022-09-09T11:26:47;18.03;;;8.07;;
67248;SDS011;63247;54.300;18.592;2022-09-09T11:31:59;16.88;;;8.43;;
67248;SDS011;63247;54.300;18.592;2022-09-09T11:34:36;20.02;;;10.75;;
67248;SDS011;63247;54.300;18.592;2022-09-09T11:39:53;20.33;;;9.68;;
67248;SDS011;63247;54.300;18.592;2022-09-09T11:42:33;20.17;;;11.65;;
67248;SDS011;63247;54.300;18.592;2022-09-09T11:45:08;18.80;;;9.70;;
67248;SDS011;63247;54.300;18.592;2022-09-09T11:47:36;15.48;;;8.52;;
67248;SDS011;63247;54.300;18.592;2022-09-09T11:50:27;14.70;;;6.97;;
67248;SDS011;63247;54.300;18.592;2022-09-09T11:53:20;16.43;;;8.40;;
67248;SDS011;63247;54.300;18.592;2022-09-09T11:55:47;15.32;;;7.93;;
67248;SDS011;63247;54.300;18.592;2022-09-09T11:58:25;18.83;;;9.40;;
67248;SDS011;63247;54.300;18.592;2022-09-09T12:00:51;20.03;;;11.37;;
67248;SDS011;63247;54.300;18.592;2022-09-09T12:03:38;21.73;;;10.85;;
67248;SDS011;63247;54.300;18.592;2022-09-09T12:06:49;15.45;;;8.82;;
67248;SDS011;63247;54.300;18.592;2022-09-09T12:11:44;19.15;;;9.43;;
67248;SDS011;63247;54.300;18.592;2022-09-09T12:14:20;15.80;;;7.60;;
67248;SDS011;63247;54.300;18.592;2022-09-09T12:17:16;21.55;;;12.25;;
67248;SDS011;63247;54.300;18.592;2022-09-09T12:19:44;20.02;;;9.85;;
67248;SDS011;63247;54.300;18.592;2022-09-09T12:24:59;19.40;;;10.20;;
67248;SDS011;63247;54.300;18.592;2022-09-09T12:27:36;19.00;;;8.70;;
67248;SDS011;63247;54.300;18.592;2022-09-09T12:30:11;19.92;;;10.23;;
67248;SDS011;63247;54.300;18.592;2022-09-09T12:32:39;22.73;;;11.33;;
67248;SDS011;63247;54.300;18.592;2022-09-09T12:37:46;20.73;;;9.77;;
67248;SDS011;63247;54.300;18.592;2022-09-09T12:42:56;20.17;;;10.27;;
67248;SDS011;63247;54.300;18.592;2022-09-09T12:45:22;24.88;;;12.38;;
67248;SDS011;63247;54.300;18.592;2022-09-09T12:50:33;21.55;;;11.07;;
67248;SDS011;63247;54.300;18.592;2022-09-09T12:53:09;23.45;;;12.52;;
67248;SDS011;63247;54.300;18.592;2022-09-09T12:55:59;26.35;;;12.30;;
67248;SDS011;63247;54.300;18.592;2022-09-09T12:58:30;26.97;;;14.10;;
67248;SDS011;63247;54.300;18.592;2022-09-09T13:01:00;25.98;;;12.73;;
67248;SDS011;63247;54.300;18.592;2022-09-09T13:03:30;23.67;;;11.82;;
67248;SDS011;63247;54.300;18.592;2022-09-09T13:06:39;24.08;;;11.80;;
67248;SDS011;63247;54.300;18.592;2022-09-09T13:08:50;25.00;;;12.43;;
67248;SDS011;63247;54.300;18.592;2022-09-09T13:11:18;26.63;;;13.47;;
67248;SDS011;63247;54.300;18.592;2022-09-09T13:13:51;27.95;;;12.50;;
67248;SDS011;63247;54.300;18.592;2022-09-09T13:19:07;23.13;;;11.43;;
67248;SDS011;63247;54.300;18.592;2022-09-09T13:21:36;31.95;;;16.05;;
67248;SDS011;63247;54.300;18.592;2022-09-09T13:24:06;27.30;;;12.53;;
67248;SDS011;63247;54.300;18.592;2022-09-09T13:26:56;24.15;;;10.75;;
67248;SDS011;63247;54.300;18.592;2022-09-09T13:29:52;29.85;;;14.15;;
67248;SDS011;63247;54.300;18.592;2022-09-09T13:32:22;36.22;;;15.73;;
67248;SDS011;63247;54.300;18.592;2022-09-09T13:37:34;28.57;;;13.10;;
67248;SDS011;63247;54.300;18.592;2022-09-09T13:40:02;27.40;;;12.50;;
67248;SDS011;63247;54.300;18.592;2022-09-09T13:42:31;31.88;;;14.98;;
67248;SDS011;63247;54.300;18.592;2022-09-09T13:45:02;30.83;;;14.23;;
67248;SDS011;63247;54.300;18.592;2022-09-09T13:47:32;34.10;;;16.05;;
67248;SDS011;63247;54.300;18.592;2022-09-09T13:52:44;40.40;;;17.08;;
67248;SDS011;63247;54.300;18.592;2022-09-09T13:55:10;38.10;;;16.65;;
67248;SDS011;63247;54.300;18.592;2022-09-09T13:57:36;38.53;;;17.47;;
67248;SDS011;63247;54.300;18.592;2022-09-09T14:00:02;40.00;;;16.80;;
67248;SDS011;63247;54.300;18.592;2022-09-09T14:02:27;30.40;;;12.83;;
67248;SDS011;63247;54.300;18.592;2022-09-09T14:04:53;32.85;;;16.33;;
67248;SDS011;63247;54.300;18.592;2022-09-09T14:07:20;32.33;;;13.97;;
67248;SDS011;63247;54.300;18.592;2022-09-09T14:09:46;31.92;;;13.55;;
67248;SDS011;63247;54.300;18.592;2022-09-09T14:12:16;31.63;;;14.43;;
67248;SDS011;63247;54.300;18.592;2022-09-09T14:14:42;30.83;;;14.07;;
67248;SDS011;63247;54.300;18.592;2022-09-09T14:17:08;34.20;;;15.37;;
67248;SDS011;63247;54.300;18.592;2022-09-09T14:19:34;37.40;;;15.88;;
67248;SDS011;63247;54.300;18.592;2022-09-09T14:22:02;28.88;;;13.80;;
67248;SDS011;63247;54.300;18.592;2022-09-09T14:24:27;37.10;;;15.03;;
67248;SDS011;63247;54.300;18.592;2022-09-09T14:26:53;36.47;;;16.42;;
67248;SDS011;63247;54.300;18.592;2022-09-09T14:29:19;40.60;;;16.83;;
67248;SDS011;63247;54.300;18.592;2022-09-09T14:31:44;43.97;;;20.08;;
67248;SDS011;63247;54.300;18.592;2022-09-09T14:34:10;32.30;;;15.13;;
67248;SDS011;63247;54.300;18.592;2022-09-09T14:36:36;34.90;;;15.93;;
67248;SDS011;63247;54.300;18.592;2022-09-09T14:39:02;49.38;;;20.23;;
67248;SDS011;63247;54.300;18.592;2022-09-09T14:41:29;64.80;;;25.08;;
67248;SDS011;63247;54.300;18.592;2022-09-09T14:43:55;49.30;;;21.52;;
67248;SDS011;63247;54.300;18.592;2022-09-09T14:46:22;43.65;;;17.80;;
67248;SDS011;63247;54.300;18.592;2022-09-09T14:48:48;50.77;;;22.07;;
67248;SDS011;63247;54.300;18.592;2022-09-09T14:51:18;36.30;;;16.02;;
67248;SDS011;63247;54.300;18.592;2022-09-09T14:53:45;44.53;;;19.20;;
67248;SDS011;63247;54.300;18.592;2022-09-09T14:56:15;40.28;;;17.48;;
67248;SDS011;63247;54.300;18.592;2022-09-09T14:58:47;47.40;;;19.92;;
67248;SDS011;63247;54.300;18.592;2022-09-09T15:01:17;48.15;;;20.00;;
67248;SDS011;63247;54.300;18.592;2022-09-09T15:03:54;41.63;;;19.85;;
67248;SDS011;63247;54.300;18.592;2022-09-09T15:06:23;45.87;;;19.87;;
67248;SDS011;63247;54.300;18.592;2022-09-09T15:08:50;48.25;;;21.38;;
67248;SDS011;63247;54.300;18.592;2022-09-09T15:11:17;45.28;;;19.15;;
67248;SDS011;63247;54.300;18.592;2022-09-09T15:13:43;38.88;;;16.08;;
67248;SDS011;63247;54.300;18.592;2022-09-09T15:16:13;47.20;;;20.03;;
67248;SDS011;63247;54.300;18.592;2022-09-09T15:18:40;50.90;;;20.13;;
67248;SDS011;63247;54.300;18.592;2022-09-09T15:21:14;47.88;;;18.90;;
67248;SDS011;63247;54.300;18.592;2022-09-09T15:23:41;41.42;;;16.95;;
67248;SDS011;63247;54.300;18.592;2022-09-09T15:26:07;57.15;;;22.98;;
67248;SDS011;63247;54.300;18.592;2022-09-09T15:28:35;47.70;;;17.27;;
67248;SDS011;63247;54.300;18.592;2022-09-09T15:31:05;50.58;;;22.20;;
67248;SDS011;63247;54.300;18.592;2022-09-09T15:33:34;50.88;;;22.35;;
67248;SDS011;63247;54.300;18.592;2022-09-09T15:36:24;38.10;;;17.55;;
67248;SDS011;63247;54.300;18.592;2022-09-09T15:38:50;53.58;;;22.23;;
67248;SDS011;63247;54.300;18.592;2022-09-09T15:41:17;72.40;;;31.10;;
67248;SDS011;63247;54.300;18.592;2022-09-09T15:43:45;60.67;;;25.02;;
67248;SDS011;63247;54.300;18.592;2022-09-09T15:46:34;82.53;;;31.25;;
67248;SDS011;63247;54.300;18.592;2022-09-09T15:49:35;66.72;;;25.83;;
67248;SDS011;63247;54.300;18.592;2022-09-09T15:51:57;79.18;;;28.98;;
67248;SDS011;63247;54.300;18.592;2022-09-09T15:54:28;80.97;;;35.40;;
67248;SDS011;63247;54.300;18.592;2022-09-09T15:57:00;56.17;;;20.63;;
67248;SDS011;63247;54.300;18.592;2022-09-09T15:59:28;76.30;;;25.60;;
67248;SDS011;63247;54.300;18.592;2022-09-09T16:01:55;77.63;;;32.78;;
67248;SDS011;63247;54.300;18.592;2022-09-09T16:04:22;85.80;;;35.67;;
67248;SDS011;63247;54.300;18.592;2022-09-09T16:06:52;70.90;;;29.23;;
67248;SDS011;63247;54.300;18.592;2022-09-09T16:09:19;66.03;;;21.75;;
67248;SDS011;63247;54.300;18.592;2022-09-09T16:11:45;84.97;;;30.05;;
67248;SDS011;63247;54.300;18.592;2022-09-09T16:14:12;81.82;;;26.98;;
67248;SDS011;63247;54.300;18.592;2022-09-09T16:16:38;99.82;;;27.25;;
67248;SDS011;63247;54.300;18.592;2022-09-09T16:19:05;154.87;;;26.97;;
67248;SDS011;63247;54.300;18.592;2022-09-09T16:21:35;115.63;;;26.17;;
67248;SDS011;63247;54.300;18.592;2022-09-09T16:24:03;70.60;;;24.92;;
67248;SDS011;63247;54.300;18.592;2022-09-09T16:26:31;68.23;;;25.00;;
67248;SDS011;63247;54.300;18.592;2022-09-09T16:28:59;72.88;;;25.75;;
67248;SDS011;63247;54.300;18.592;2022-09-09T16:31:26;60.00;;;22.17;;
67248;SDS011;63247;54.300;18.592;2022-09-09T16:33:53;68.57;;;25.80;;
67248;SDS011;63247;54.300;18.592;2022-09-09T16:36:25;68.68;;;26.10;;
67248;SDS011;63247;54.300;18.592;2022-09-09T16:38:58;74.50;;;27.80;;
67248;SDS011;63247;54.300;18.592;2022-09-09T16:41:26;70.45;;;25.92;;
67248;SDS011;63247;54.300;18.592;2022-09-09T16:43:56;97.80;;;26.98;;
67248;SDS011;63247;54.300;18.592;2022-09-09T16:46:24;84.50;;;28.85;;
67248;SDS011;63247;54.300;18.592;2022-09-09T16:48:50;58.70;;;22.07;;
67248;SDS011;63247;54.300;18.592;2022-09-09T16:51:21;85.75;;;27.65;;
67248;SDS011;63247;54.300;18.592;2022-09-09T16:53:49;75.03;;;25.98;;